| time (UTC) | temp C | wind direction | speed KPH | gust KPH | rain 1hr cm | rain 24hr cm | rain mn cm | humidity % | barometer mb |
| 20260905055603 | 7 | 315 | 0.0 | 0.0 | 0.00 | 0.30 | 0.30 | 94 | 1015.9 |
| 20260905055103 | 7 | 315 | 0.0 | 0.0 | 0.00 | 0.30 | 0.30 | 94 | 1016.0 |
| 20260905054603 | 7 | 315 | 0.0 | 0.0 | 0.00 | 0.30 | 0.30 | 94 | 1016.0 |
| 20260905054103 | 7 | 315 | 0.0 | 0.0 | 0.00 | 0.30 | 0.30 | 94 | 1016.0 |
| 20260905053603 | 7 | 315 | 0.0 | 0.0 | 0.00 | 0.30 | 0.30 | 94 | 1016.1 |
| 20260905053102 | 7 | 315 | 0.0 | 0.0 | 0.00 | 0.30 | 0.30 | 94 | 1016.2 |
| 20260905052103 | 7 | 315 | 0.0 | 0.0 | 0.00 | 0.30 | 0.30 | 94 | 1016.2 |
| 20260905051603 | 7 | 315 | 0.0 | 0.0 | 0.00 | 0.30 | 0.30 | 94 | 1016.2 |
| 20260905051103 | 7 | 315 | 0.0 | 0.0 | 0.00 | 0.30 | 0.30 | 94 | 1016.1 |
| 20260905050603 | 7 | 315 | 0.0 | 0.0 | 0.00 | 0.30 | 0.30 | 93 | 1016.0 |
| 20260905050103 | 7 | 315 | 0.0 | 0.0 | 0.00 | 0.30 | 0.30 | 93 | 1015.9 |
| 20260905045603 | 7 | 315 | 0.0 | 0.0 | 0.00 | 0.30 | 0.30 | 93 | 1015.9 |
| 20260905045103 | 7 | 315 | 0.0 | 0.0 | 0.00 | 0.30 | 0.30 | 93 | 1015.8 |
| 20260905044603 | 7 | 315 | 0.0 | 0.0 | 0.00 | 0.30 | 0.30 | 93 | 1015.8 |
| 20260905043603 | 7 | 315 | 0.0 | 0.0 | 0.00 | 0.30 | 0.30 | 93 | 1015.9 |
| 20260905043103 | 8 | 315 | 0.0 | 0.0 | 0.00 | 0.30 | 0.30 | 93 | 1015.9 |
| 20260905042603 | 8 | 315 | 0.0 | 0.0 | 0.00 | 0.30 | 0.30 | 93 | 1016.0 |
| 20260905042103 | 8 | 315 | 0.0 | 0.0 | 0.00 | 0.30 | 0.30 | 92 | 1015.9 |
| 20260905041604 | 8 | 315 | 0.0 | 0.0 | 0.00 | 0.30 | 0.30 | 92 | 1015.9 |
| 20260905040602 | 8 | 315 | 0.0 | 0.0 | 0.03 | 0.30 | 0.30 | 92 | 1015.9 |
| 20260905040104 | 8 | 315 | 0.0 | 0.0 | 0.03 | 0.30 | 0.30 | 92 | 1015.9 |
| 20260905035603 | 8 | 315 | 0.0 | 0.0 | 0.05 | 0.30 | 0.30 | 92 | 1015.9 |
| 20260905035104 | 9 | 315 | 0.0 | 0.0 | 0.05 | 0.30 | 0.30 | 92 | 1016.0 |
| 20260905034603 | 9 | 315 | 0.0 | 0.0 | 0.08 | 0.30 | 0.30 | 91 | 1016.1 |
| 20260905034103 | 9 | 315 | 0.0 | 0.0 | 0.08 | 0.30 | 0.30 | 91 | 1016.0 |
| 20260905033603 | 9 | 315 | 0.0 | 0.0 | 0.10 | 0.30 | 0.30 | 91 | 1016.0 |
| 20260905032603 | 9 | 315 | 0.0 | 0.0 | 0.18 | 0.30 | 0.30 | 91 | 1015.8 |
| 20260905032103 | 9 | 315 | 0.0 | 0.0 | 0.18 | 0.30 | 0.30 | 91 | 1015.6 |
| 20260905031603 | 9 | 315 | 0.0 | 0.0 | 0.18 | 0.30 | 0.30 | 91 | 1015.4 |
| 20260905031104 | 9 | 315 | 0.0 | 0.0 | 0.15 | 0.28 | 0.28 | 91 | 1015.4 |
| 20260905030604 | 9 | 315 | 0.0 | 0.0 | 0.15 | 0.28 | 0.28 | 91 | 1015.4 |
| 20260905030104 | 9 | 315 | 0.0 | 0.0 | 0.15 | 0.28 | 0.28 | 91 | 1015.5 |
| 20260905025604 | 9 | 315 | 0.0 | 0.0 | 0.13 | 0.25 | 0.25 | 90 | 1015.4 |
| 20260905025103 | 9 | 315 | 0.0 | 0.0 | 0.13 | 0.25 | 0.25 | 90 | 1015.4 |
| 20260905024603 | 10 | 315 | 0.0 | 0.0 | 0.10 | 0.23 | 0.23 | 90 | 1015.5 |
| 20260905024103 | 10 | 315 | 0.0 | 0.0 | 0.10 | 0.23 | 0.23 | 89 | 1015.5 |
| 20260905023603 | 10 | 315 | 0.0 | 0.0 | 0.08 | 0.20 | 0.20 | 89 | 1015.4 |
| 20260905022103 | 10 | 315 | 0.0 | 0.0 | 0.00 | 0.13 | 0.13 | 85 | 1015.3 |
| 20260905021603 | 10 | 315 | 0.0 | 0.0 | 0.00 | 0.13 | 0.13 | 85 | 1015.1 |
| 20260905021103 | 10 | 315 | 0.0 | 0.0 | 0.00 | 0.13 | 0.13 | 85 | 1014.9 |
| 20260905020604 | 10 | 315 | 0.0 | 0.0 | 0.00 | 0.13 | 0.13 | 82 | 1014.9 |
| 20260905020105 | 10 | 315 | 0.0 | 0.0 | 0.00 | 0.13 | 0.13 | 82 | 1014.8 |
| 20260905015603 | 11 | 315 | 0.0 | 4.8 | 0.00 | 0.13 | 0.13 | 81 | 1014.8 |
| 20260905015103 | 11 | 337 | 0.0 | 0.0 | 0.00 | 0.13 | 0.13 | 81 | 1014.8 |
| 20260905014603 | 11 | 337 | 0.0 | 4.8 | 0.00 | 0.13 | 0.13 | 81 | 1014.8 |
| 20260905014103 | 11 | 336 | 0.0 | 1.6 | 0.00 | 0.13 | 0.13 | 80 | 1014.7 |
| 20260905013603 | 11 | 342 | 0.0 | 3.2 | 0.00 | 0.13 | 0.13 | 79 | 1014.6 |
| 20260905012603 | 11 | 342 | 0.0 | 0.0 | 0.00 | 0.13 | 0.13 | 77 | 1014.6 |
| 20260905012103 | 11 | 342 | 0.0 | 0.0 | 0.00 | 0.13 | 0.13 | 76 | 1014.4 |
| 20260905011603 | 11 | 342 | 0.0 | 0.0 | 0.00 | 0.13 | 0.13 | 76 | 1014.4 |
| 20260905011103 | 11 | 342 | 0.0 | 0.0 | 0.00 | 0.13 | 0.13 | 74 | 1014.3 |
| 20260905010603 | 11 | 342 | 0.0 | 1.6 | 0.00 | 0.13 | 0.13 | 74 | 1014.2 |
| 20260905010103 | 11 | 62 | 0.0 | 3.2 | 0.00 | 0.13 | 0.13 | 75 | 1014.1 |
| 20260905005603 | 11 | 99 | 0.0 | 1.6 | 0.00 | 0.13 | 0.13 | 74 | 1014.1 |
| 20260905005104 | 11 | 101 | 0.0 | 4.8 | 0.00 | 0.13 | 0.13 | 73 | 1014.2 |
| 20260905004604 | 12 | 78 | 1.6 | 4.8 | 0.00 | 0.13 | 0.13 | 73 | 1014.1 |
| 20260905004103 | 12 | 84 | 0.0 | 4.8 | 0.00 | 0.13 | 0.13 | 71 | 1013.9 |
| 20260905003603 | 12 | 82 | 0.0 | 0.0 | 0.00 | 0.13 | 0.13 | 68 | 1013.8 |
| 20260905003103 | 13 | 82 | 0.0 | 4.8 | 0.00 | 0.13 | 0.13 | 63 | 1013.8 |
| 20260905002603 | 13 | 153 | 0.0 | 0.0 | 0.00 | 0.13 | 0.13 | 59 | 1013.7 |
| 20260905002103 | 13 | 153 | 0.0 | 0.0 | 0.00 | 0.13 | 0.13 | 58 | 1013.5 |
| 20260905001604 | 14 | 149 | 0.0 | 1.6 | 0.00 | 0.13 | 0.13 | 57 | 1013.3 |
| 20260905001104 | 14 | 148 | 0.0 | 0.0 | 0.00 | 0.13 | 0.13 | 55 | 1013.3 |
| 20260905000603 | 14 | 146 | 0.0 | 0.0 | 0.00 | 0.13 | 0.13 | 58 | 1013.3 |
| 20260905000104 | 15 | 144 | 0.0 | 3.2 | 0.00 | 0.13 | 0.13 | 55 | 1013.4 |
| 20260904235604 | 15 | 241 | 0.0 | 4.8 | 0.00 | 0.13 | 0.13 | 56 | 1013.4 |
| 20260904235103 | 15 | 237 | 1.6 | 4.8 | 0.00 | 0.13 | 0.13 | 57 | 1013.4 |
| 20260904234603 | 15 | 158 | 0.0 | 3.2 | 0.00 | 0.13 | 0.13 | 58 | 1013.3 |
| 20260904234103 | 15 | 136 | 0.0 | 3.2 | 0.00 | 0.13 | 0.13 | 62 | 1013.3 |
| 20260904233603 | 14 | 141 | 3.2 | 14.5 | 0.00 | 0.13 | 0.13 | 61 | 1013.3 |
| 20260904233103 | 14 | 229 | 0.0 | 3.2 | 0.00 | 0.13 | 0.13 | 64 | 1013.2 |
| 20260904232604 | 13 | 170 | 0.0 | 1.6 | 0.00 | 0.13 | 0.13 | 65 | 1013.2 |
| 20260904232103 | 13 | 170 | 0.0 | 4.8 | 0.00 | 0.13 | 0.13 | 65 | 1013.2 |
| 20260904231604 | 14 | 187 | 1.6 | 4.8 | 0.00 | 0.13 | 0.13 | 64 | 1013.3 |
| 20260904231103 | 14 | 193 | 0.0 | 1.6 | 0.00 | 0.13 | 0.13 | 64 | 1013.2 |
| 20260904230104 | 13 | 200 | 0.0 | 0.0 | 0.05 | 0.13 | 0.13 | 71 | 1013.1 |
| 20260904225604 | 13 | 200 | 0.0 | 0.0 | 0.10 | 0.13 | 0.13 | 68 | 1013.1 |
| 20260904225103 | 13 | 200 | 0.0 | 0.0 | 0.10 | 0.13 | 0.13 | 72 | 1013.1 |
| 20260904224603 | 12 | 200 | 0.0 | 3.2 | 0.13 | 0.13 | 0.13 | 72 | 1013.1 |
| 20260904223603 | 12 | 204 | 0.0 | 4.8 | 0.13 | 0.13 | 0.13 | 70 | 1013.1 |
| 20260904223103 | 12 | 237 | 0.0 | 0.0 | 0.13 | 0.13 | 0.13 | 79 | 1013.2 |
| 20260904222603 | 12 | 238 | 0.0 | 3.2 | 0.13 | 0.13 | 0.13 | 79 | 1013.1 |
| 20260904222103 | 11 | 236 | 0.0 | 4.8 | 0.13 | 0.13 | 0.13 | 79 | 1013.2 |
| 20260904221603 | 10 | 237 | 0.0 | 0.0 | 0.13 | 0.13 | 0.13 | 87 | 1013.3 |
| 20260904221103 | 9 | 237 | 0.0 | 0.0 | 0.13 | 0.13 | 0.13 | 82 | 1013.3 |
| 20260904220603 | 9 | 234 | 0.0 | 0.0 | 0.10 | 0.10 | 0.10 | 82 | 1013.7 |
| 20260904220104 | 10 | 194 | 0.0 | 4.8 | 0.08 | 0.08 | 0.08 | 82 | 1014.2 |
| 20260904215603 | 10 | 139 | 1.6 | 4.8 | 0.03 | 0.03 | 0.03 | 76 | 1014.4 |
| 20260904215103 | 11 | 225 | 4.8 | 19.3 | 0.03 | 0.03 | 0.03 | 71 | 1014.0 |
| 20260904214604 | 12 | 242 | 1.6 | 16.1 | 0.00 | 0.00 | 0.00 | 62 | 1013.7 |
| 20260904214103 | 13 | 188 | 0.0 | 4.8 | 0.00 | 0.00 | 0.00 | 59 | 1013.3 |
| 20260904213603 | 13 | 150 | 0.0 | 1.6 | 0.00 | 0.00 | 0.00 | 58 | 1013.2 |
| 20260904212603 | 14 | 178 | 0.0 | 4.8 | 0.00 | 0.00 | 0.00 | 51 | 1012.8 |
| 20260904211603 | 15 | 206 | 0.0 | 1.6 | 0.00 | 0.00 | 0.00 | 50 | 1012.8 |
| 20260904210603 | 15 | 241 | 0.0 | 4.8 | 0.00 | 0.00 | 0.00 | 51 | 1012.7 |
| 20260904210103 | 15 | 137 | 0.0 | 3.2 | 0.00 | 0.00 | 0.00 | 50 | 1012.8 |
| 20260904205603 | 15 | 139 | 0.0 | 4.8 | 0.00 | 0.00 | 0.00 | 49 | 1012.7 |
| 20260904204603 | 16 | 127 | 0.0 | 4.8 | 0.00 | 0.00 | 0.00 | 51 | 1012.8 |
| 20260904203605 | 15 | 138 | 0.0 | 4.8 | 0.00 | 0.00 | 0.00 | 54 | 1012.7 |
| 20260904203103 | 15 | 151 | 0.0 | 4.8 | 0.00 | 0.00 | 0.00 | 54 | 1012.8 |
| 20260904202603 | 15 | 91 | 0.0 | 4.8 | 0.00 | 0.00 | 0.00 | 55 | 1012.9 |
| 20260904202104 | 14 | 202 | 0.0 | 1.6 | 0.00 | 0.00 | 0.00 | 55 | 1013.0 |
| 20260904201603 | 13 | 251 | 1.6 | 9.7 | 0.00 | 0.00 | 0.00 | 55 | 1013.0 |
| 20260904201103 | 13 | 176 | 0.0 | 1.6 | 0.00 | 0.00 | 0.00 | 58 | 1013.1 |
| 20260904200603 | 13 | 175 | 1.6 | 8.0 | 0.00 | 0.00 | 0.00 | 58 | 1013.0 |
| 20260904200104 | 12 | 87 | 0.0 | 4.8 | 0.00 | 0.00 | 0.00 | 57 | 1013.1 |
| 20260904195603 | 13 | 133 | 0.0 | 9.7 | 0.00 | 0.00 | 0.00 | 56 | 1013.2 |
| 20260904194604 | 12 | 130 | 0.0 | 0.0 | 0.00 | 0.00 | 0.00 | 62 | 1013.4 |
| 20260904194103 | 12 | 123 | 0.0 | 0.0 | 0.00 | 0.00 | 0.00 | 62 | 1013.5 |
| 20260904193603 | 12 | 170 | 0.0 | 1.6 | 0.00 | 0.00 | 0.00 | 61 | 1013.7 |
| 20260904192603 | 12 | 89 | 0.0 | 1.6 | 0.00 | 0.00 | 0.00 | 61 | 1013.7 |
| 20260904192104 | 11 | 209 | 0.0 | 4.8 | 0.00 | 0.00 | 0.00 | 62 | 1013.8 |
| 20260904191603 | 11 | 233 | 0.0 | 4.8 | 0.00 | 0.00 | 0.00 | 63 | 1013.9 |
| 20260904191103 | 11 | 163 | 1.6 | 8.0 | 0.00 | 0.00 | 0.00 | 63 | 1014.0 |
| 20260904190603 | 11 | 138 | 0.0 | 4.8 | 0.00 | 0.00 | 0.00 | 63 | 1014.0 |
| 20260904190104 | 11 | 199 | 0.0 | 4.8 | 0.00 | 0.00 | 0.00 | 65 | 1014.0 |
| 20260904185103 | 10 | 204 | 0.0 | 4.8 | 0.00 | 0.00 | 0.00 | 65 | 1014.2 |
| 20260904184603 | 10 | 118 | 1.6 | 4.8 | 0.00 | 0.00 | 0.00 | 66 | 1014.1 |
| 20260904184104 | 10 | 183 | 0.0 | 3.2 | 0.00 | 0.00 | 0.00 | 66 | 1014.1 |
| 20260904183603 | 10 | 138 | 0.0 | 0.0 | 0.00 | 0.00 | 0.00 | 68 | 1014.1 |
| 20260904183103 | 9 | 181 | 0.0 | 4.8 | 0.00 | 0.00 | 0.00 | 68 | 1014.0 |
| 20260904182104 | 9 | 211 | 1.6 | 14.5 | 0.00 | 0.00 | 0.00 | 68 | 1014.0 |
| 20260904181603 | 10 | 243 | 1.6 | 11.3 | 0.00 | 0.00 | 0.00 | 68 | 1013.9 |
| 20260904181103 | 10 | 187 | 1.6 | 8.0 | 0.00 | 0.00 | 0.00 | 69 | 1013.8 |
| 20260904180104 | 10 | 141 | 0.0 | 4.8 | 0.00 | 0.00 | 0.00 | 68 | 1013.7 |
| 20260904175603 | 10 | 184 | 0.0 | 1.6 | 0.00 | 0.00 | 0.00 | 69 | 1013.6 |
| 20260904175103 | 10 | 255 | 1.6 | 9.7 | 0.00 | 0.00 | 0.00 | 68 | 1013.5 |
| 20260904174603 | 10 | 153 | 0.0 | 8.0 | 0.00 | 0.00 | 0.00 | 68 | 1013.5 |
| 20260904174103 | 10 | 214 | 0.0 | 4.8 | 0.00 | 0.00 | 0.00 | 68 | 1013.4 |
| 20260904173103 | 10 | 217 | 0.0 | 4.8 | 0.00 | 0.00 | 0.00 | 67 | 1013.3 |
| 20260904172603 | 10 | 191 | 0.0 | 4.8 | 0.00 | 0.00 | 0.00 | 67 | 1013.3 |
| 20260904172103 | 10 | 258 | 0.0 | 4.8 | 0.00 | 0.00 | 0.00 | 68 | 1013.2 |
| 20260904171603 | 10 | 135 | 0.0 | 0.0 | 0.00 | 0.00 | 0.00 | 69 | 1013.1 |
| 20260904171103 | 10 | 134 | 0.0 | 4.8 | 0.00 | 0.00 | 0.00 | 69 | 1013.1 |
| 20260904170603 | 10 | 135 | 0.0 | 1.6 | 0.00 | 0.00 | 0.00 | 69 | 1013.1 |
| 20260904165603 | 9 | 161 | 0.0 | 4.8 | 0.00 | 0.00 | 0.00 | 69 | 1013.1 |
| 20260904165104 | 9 | 183 | 0.0 | 3.2 | 0.00 | 0.00 | 0.00 | 69 | 1013.1 |
| 20260904164604 | 9 | 190 | 0.0 | 3.2 | 0.00 | 0.00 | 0.00 | 69 | 1013.0 |
| 20260904164103 | 9 | 180 | 0.0 | 3.2 | 0.00 | 0.00 | 0.00 | 68 | 1013.0 |
| 20260904163603 | 9 | 236 | 0.0 | 12.9 | 0.00 | 0.00 | 0.00 | 68 | 1013.0 |
| 20260904163103 | 9 | 204 | 0.0 | 3.2 | 0.00 | 0.00 | 0.00 | 68 | 1012.9 |
| 20260904162103 | 9 | 244 | 0.0 | 4.8 | 0.00 | 0.00 | 0.00 | 69 | 1012.8 |
| 20260904161103 | 9 | 209 | 0.0 | 1.6 | 0.00 | 0.00 | 0.00 | 71 | 1012.8 |
| 20260904160603 | 8 | 249 | 0.0 | 4.8 | 0.00 | 0.00 | 0.00 | 72 | 1012.9 |
| 20260904160103 | 8 | 239 | 0.0 | 9.7 | 0.00 | 0.00 | 0.00 | 71 | 1012.8 |
| 20260904155603 | 8 | 144 | 1.6 | 8.0 | 0.00 | 0.00 | 0.00 | 72 | 1012.8 |
| 20260904154603 | 8 | 218 | 0.0 | 1.6 | 0.00 | 0.00 | 0.00 | 73 | 1012.7 |
| 20260904154103 | 8 | 227 | 0.0 | 4.8 | 0.00 | 0.00 | 0.00 | 73 | 1012.7 |
| 20260904153603 | 8 | 155 | 0.0 | 3.2 | 0.00 | 0.00 | 0.00 | 73 | 1012.7 |
| 20260904153103 | 8 | 211 | 0.0 | 1.6 | 0.00 | 0.00 | 0.00 | 73 | 1012.7 |
| 20260904152603 | 8 | 232 | 0.0 | 0.0 | 0.00 | 0.00 | 0.00 | 73 | 1012.7 |
| 20260904152103 | 8 | 232 | 0.0 | 1.6 | 0.00 | 0.00 | 0.00 | 73 | 1012.7 |
| 20260904151604 | 8 | 234 | 0.0 | 1.6 | 0.00 | 0.00 | 0.00 | 73 | 1012.8 |
| 20260904151104 | 8 | 245 | 1.6 | 4.8 | 0.00 | 0.00 | 0.00 | 72 | 1012.7 |
| 20260904150104 | 8 | 156 | 0.0 | 3.2 | 0.00 | 0.00 | 0.00 | 72 | 1012.6 |
| 20260904145603 | 8 | 212 | 0.0 | 8.0 | 0.00 | 0.00 | 0.00 | 72 | 1012.6 |
| 20260904145104 | 8 | 154 | 0.0 | 4.8 | 0.00 | 0.00 | 0.00 | 73 | 1012.5 |
| 20260904144604 | 8 | 170 | 1.6 | 8.0 | 0.00 | 0.00 | 0.00 | 73 | 1012.5 |
| 20260904144103 | 8 | 188 | 1.6 | 8.0 | 0.00 | 0.00 | 0.00 | 74 | 1012.4 |
| 20260904143603 | 7 | 170 | 1.6 | 4.8 | 0.00 | 0.00 | 0.00 | 75 | 1012.3 |
| 20260904143104 | 7 | 160 | 1.6 | 8.0 | 0.00 | 0.00 | 0.00 | 75 | 1012.2 |
| 20260904142103 | 7 | 218 | 1.6 | 4.8 | 0.00 | 0.00 | 0.00 | 77 | 1011.9 |
| 20260904141603 | 7 | 227 | 0.0 | 3.2 | 0.00 | 0.00 | 0.00 | 78 | 1011.7 |
| 20260904141103 | 6 | 199 | 0.0 | 4.8 | 0.00 | 0.00 | 0.00 | 79 | 1011.6 |
| 20260904140604 | 6 | 198 | 0.0 | 1.6 | 0.00 | 0.00 | 0.00 | 79 | 1011.8 |
| 20260904140104 | 6 | 200 | 0.0 | 1.6 | 0.00 | 0.00 | 0.00 | 79 | 1011.9 |
| 20260904135604 | 6 | 181 | 0.0 | 4.8 | 0.00 | 0.00 | 0.00 | 80 | 1011.8 |
| 20260904134603 | 6 | 151 | 0.0 | 3.2 | 0.00 | 0.00 | 0.00 | 81 | 1011.7 |
| 20260904134103 | 6 | 196 | 0.0 | 1.6 | 0.00 | 0.00 | 0.00 | 81 | 1011.7 |
| 20260904133603 | 6 | 167 | 0.0 | 0.0 | 0.00 | 0.00 | 0.00 | 81 | 1011.7 |
| 20260904133104 | 6 | 167 | 0.0 | 0.0 | 0.00 | 0.00 | 0.00 | 81 | 1011.7 |
| 20260904132603 | 6 | 167 | 0.0 | 0.0 | 0.00 | 0.00 | 0.00 | 81 | 1011.7 |
| 20260904132104 | 6 | 167 | 0.0 | 0.0 | 0.00 | 0.00 | 0.00 | 81 | 1011.7 |
| 20260904131603 | 6 | 167 | 0.0 | 0.0 | 0.00 | 0.00 | 0.00 | 81 | 1011.6 |
| 20260904131103 | 6 | 167 | 0.0 | 0.0 | 0.00 | 0.00 | 0.00 | 80 | 1011.7 |
| 20260904130603 | 6 | 167 | 0.0 | 0.0 | 0.00 | 0.00 | 0.00 | 80 | 1011.7 |
| 20260904130103 | 6 | 167 | 0.0 | 0.0 | 0.00 | 0.00 | 0.00 | 80 | 1011.6 |
| 20260904125604 | 6 | 167 | 0.0 | 0.0 | 0.00 | 0.00 | 0.00 | 80 | 1011.4 |
| 20260904125103 | 6 | 167 | 0.0 | 0.0 | 0.00 | 0.00 | 0.00 | 80 | 1011.4 |
| 20260904124103 | 6 | 167 | 0.0 | 0.0 | 0.00 | 0.00 | 0.00 | 80 | 1011.4 |
| 20260904123603 | 6 | 167 | 0.0 | 0.0 | 0.00 | 0.00 | 0.00 | 80 | 1011.4 |
| 20260904123103 | 6 | 167 | 0.0 | 0.0 | 0.00 | 0.00 | 0.00 | 79 | 1011.4 |
| 20260904122604 | 6 | 167 | 0.0 | 0.0 | 0.00 | 0.00 | 0.00 | 79 | 1011.4 |
| 20260904122103 | 6 | 167 | 0.0 | 0.0 | 0.00 | 0.00 | 0.00 | 79 | 1011.4 |
| 20260904121603 | 6 | 167 | 0.0 | 0.0 | 0.00 | 0.00 | 0.00 | 80 | 1011.4 |
| 20260904121103 | 6 | 167 | 0.0 | 0.0 | 0.00 | 0.00 | 0.00 | 80 | 1011.4 |
| 20260904120604 | 6 | 167 | 0.0 | 0.0 | 0.00 | 0.00 | 0.00 | 79 | 1011.4 |
| 20260904120104 | 6 | 167 | 0.0 | 0.0 | 0.00 | 0.00 | 0.00 | 79 | 1011.1 |
| 20260904115603 | 7 | 167 | 0.0 | 0.0 | 0.00 | 0.00 | 0.00 | 79 | 1011.1 |
| 20260904115103 | 7 | 167 | 0.0 | 0.0 | 0.00 | 0.00 | 0.00 | 79 | 1011.2 |
| 20260904114603 | 7 | 167 | 0.0 | 0.0 | 0.00 | 0.00 | 0.00 | 79 | 1011.3 |
| 20260904114104 | 7 | 167 | 0.0 | 0.0 | 0.00 | 0.00 | 0.00 | 79 | 1011.2 |
| 20260904113604 | 7 | 167 | 0.0 | 0.0 | 0.00 | 0.00 | 0.00 | 79 | 1011.1 |
| 20260904113104 | 7 | 167 | 0.0 | 0.0 | 0.00 | 0.00 | 0.00 | 79 | 1011.0 |
| 20260904112103 | 7 | 167 | 0.0 | 0.0 | 0.00 | 0.00 | 0.00 | 78 | 1010.9 |
| 20260904111603 | 7 | 167 | 0.0 | 0.0 | 0.00 | 0.00 | 0.00 | 79 | 1010.9 |
| 20260904111104 | 7 | 167 | 0.0 | 0.0 | 0.00 | 0.00 | 0.00 | 78 | 1011.0 |
| 20260904105103 | 7 | 166 | 0.0 | 0.0 | 0.00 | 0.00 | 0.00 | 78 | 1010.7 |
| 20260904104603 | 7 | 166 | 0.0 | 0.0 | 0.00 | 0.00 | 0.00 | 78 | 1010.7 |
| 20260904104103 | 7 | 166 | 0.0 | 0.0 | 0.00 | 0.00 | 0.00 | 77 | 1010.7 |
| 20260904103604 | 7 | 166 | 0.0 | 0.0 | 0.00 | 0.00 | 0.00 | 77 | 1010.6 |
| 20260904103103 | 7 | 166 | 0.0 | 4.8 | 0.00 | 0.00 | 0.00 | 77 | 1010.7 |
| 20260904102603 | 7 | 188 | 0.0 | 1.6 | 0.00 | 0.00 | 0.00 | 77 | 1010.8 |
| 20260904102104 | 7 | 212 | 0.0 | 0.0 | 0.00 | 0.00 | 0.00 | 77 | 1010.8 |
| 20260904101603 | 7 | 212 | 0.0 | 1.6 | 0.00 | 0.00 | 0.00 | 77 | 1010.8 |
| 20260904101103 | 7 | 213 | 0.0 | 4.8 | 0.00 | 0.00 | 0.00 | 77 | 1010.8 |
| 20260904100603 | 7 | 225 | 0.0 | 0.0 | 0.00 | 0.00 | 0.00 | 77 | 1010.8 |
| 20260904095603 | 7 | 234 | 0.0 | 0.0 | 0.00 | 0.00 | 0.00 | 77 | 1010.5 |
| 20260904095103 | 7 | 234 | 1.6 | 8.0 | 0.00 | 0.00 | 0.00 | 77 | 1010.4 |
| 20260904094603 | 7 | 207 | 0.0 | 1.6 | 0.00 | 0.00 | 0.00 | 77 | 1010.5 |
| 20260904094104 | 7 | 189 | 0.0 | 3.2 | 0.00 | 0.00 | 0.00 | 77 | 1010.5 |
| 20260904093603 | 7 | 194 | 0.0 | 4.8 | 0.00 | 0.00 | 0.00 | 78 | 1010.5 |
| 20260904093103 | 7 | 191 | 0.0 | 0.0 | 0.00 | 0.00 | 0.00 | 78 | 1010.5 |
| 20260904092603 | 7 | 190 | 0.0 | 0.0 | 0.00 | 0.00 | 0.00 | 78 | 1010.6 |
| 20260904092104 | 7 | 192 | 0.0 | 3.2 | 0.00 | 0.00 | 0.00 | 77 | 1010.5 |
| 20260904091603 | 7 | 186 | 0.0 | 3.2 | 0.00 | 0.00 | 0.00 | 76 | 1010.5 |
| 20260904090103 | 7 | 223 | 0.0 | 1.6 | 0.00 | 0.00 | 0.00 | 76 | 1010.5 |
| 20260904085604 | 7 | 216 | 1.6 | 4.8 | 0.00 | 0.00 | 0.00 | 76 | 1010.5 |
| 20260904085103 | 7 | 158 | 0.0 | 4.8 | 0.00 | 0.00 | 0.00 | 76 | 1010.5 |
| 20260904084603 | 8 | 202 | 0.0 | 4.8 | 0.00 | 0.00 | 0.00 | 76 | 1010.6 |
| 20260904084104 | 8 | 196 | 0.0 | 0.0 | 0.00 | 0.00 | 0.00 | 76 | 1010.5 |
| 20260904083603 | 8 | 196 | 0.0 | 4.8 | 0.00 | 0.00 | 0.00 | 75 | 1010.5 |
| 20260904083103 | 8 | 200 | 0.0 | 0.0 | 0.00 | 0.00 | 0.00 | 76 | 1010.4 |
| 20260904082103 | 8 | 199 | 0.0 | 1.6 | 0.00 | 0.00 | 0.00 | 76 | 1010.4 |
| 20260904081604 | 8 | 196 | 0.0 | 3.2 | 0.00 | 0.00 | 0.00 | 76 | 1010.3 |
| 20260904081103 | 8 | 162 | 0.0 | 0.0 | 0.00 | 0.00 | 0.00 | 76 | 1010.3 |
| 20260904080604 | 8 | 161 | 0.0 | 0.0 | 0.00 | 0.00 | 0.00 | 76 | 1010.3 |
| 20260904080103 | 8 | 161 | 0.0 | 0.0 | 0.00 | 0.00 | 0.00 | 76 | 1010.3 |
| 20260904075604 | 8 | 161 | 0.0 | 0.0 | 0.00 | 0.00 | 0.00 | 76 | 1010.3 |
| 20260904074604 | 8 | 161 | 0.0 | 0.0 | 0.00 | 0.00 | 0.00 | 76 | 1010.2 |
| 20260904074103 | 8 | 162 | 0.0 | 0.0 | 0.00 | 0.00 | 0.00 | 76 | 1010.3 |
| 20260904073604 | 8 | 162 | 0.0 | 0.0 | 0.00 | 0.00 | 0.00 | 76 | 1010.2 |
| 20260904072605 | 8 | 161 | 0.0 | 0.0 | 0.00 | 0.00 | 0.00 | 76 | 1010.2 |
| 20260904072103 | 8 | 161 | 0.0 | 0.0 | 0.00 | 0.00 | 0.00 | 75 | 1010.1 |
| 20260904071604 | 8 | 161 | 0.0 | 0.0 | 0.00 | 0.00 | 0.00 | 75 | 1010.1 |
| 20260904071103 | 8 | 161 | 0.0 | 0.0 | 0.00 | 0.00 | 0.00 | 74 | 1010.2 |
| 20260904065604 | 8 | 161 | 0.0 | 0.0 | 0.00 | 0.00 | 0.00 | 73 | 1010.3 |
| 20260904065103 | 8 | 161 | 0.0 | 0.0 | 0.00 | 0.00 | 0.00 | 73 | 1010.2 |
| 20260904064604 | 9 | 161 | 0.0 | 0.0 | 0.00 | 0.00 | 0.00 | 72 | 1010.2 |
| 20260904064103 | 9 | 161 | 0.0 | 0.0 | 0.00 | 0.00 | 0.00 | 72 | 1010.1 |
| 20260904063603 | 9 | 161 | 0.0 | 3.2 | 0.00 | 0.00 | 0.00 | 72 | 1010.1 |
| 20260904063104 | 9 | 167 | 0.0 | 0.0 | 0.00 | 0.00 | 0.00 | 72 | 1010.1 |
| 20260904062603 | 9 | 167 | 0.0 | 0.0 | 0.00 | 0.00 | 0.00 | 72 | 1010.2 |
| 20260904062104 | 9 | 167 | 0.0 | 0.0 | 0.00 | 0.00 | 0.00 | 72 | 1010.2 |
| 20260904061103 | 9 | 167 | 0.0 | 0.0 | 0.00 | 0.00 | 0.00 | 71 | 1010.2 |
| 20260904060603 | 9 | 167 | 0.0 | 1.6 | 0.00 | 0.00 | 0.00 | 71 | 1010.3 |
| 20260904060104 | 9 | 174 | 0.0 | 0.0 | 0.00 | 0.00 | 0.00 | 71 | 1010.2 |